KBKE/BKE METAR and TAF weather

Enter ICAO airport designator
Station Type Date Time Source
KBKE METAR 2018/01/22 19:53 UTC NOAA

KBKE 221953Z AUTO 32004KT 1/4SM FG VV002 01/M02 A3023 RMK AO2 SLP258 T00061017


Station Type Date Time Source
KBKE Decoded METAR 2018/01/22 19:53 UTC NOAA

BAKER MUNICIPAL AIRPORT, OR, United States (KBKE) 44-50N 117-49W 1024M
Jan 22, 2018 - 02:53 PM EST / 2018.01.22 1953 UTC
Wind: from the NW (320 degrees) at 5 MPH (4 KT):0
Visibility: 1/4 mile(s):0
Sky conditions: obscured
Weather: fog
Temperature: 33.1 F (0.6 C)
Windchill: 28 F (-2 C):1
Dew Point: 28.9 F (-1.7 C)
Relative Humidity: 84%
Pressure (altimeter): 30.23 in. Hg (1023 hPa)
ob: KBKE 221953Z AUTO 32004KT 1/4SM FG VV002 01/M02 A3023 RMK AO2 SLP258 T00061017
cycle: 20

Station Type Date Time Source
KBKE TAF 2018/01/22 18:22 UTC NOAA

TAF KBKE 221720Z 2218/2318 VRB06KT 1/4SM FZFG OVC006
FM222100 VRB06KT P6SM BKN050
FM231500 10008KT 5SM BR OVC050


Example: see airport list